Latest Weather Observations for Archerfield

IDQ60801

Issued at 5:32 pm EST Friday 30 January 2015 (issued every 30 minutes, with the page automatically refreshed every 10 minutes)

About weather observations | Map of weather stations | Latest weather observations for QLD | Other Formats
Station Details ID: 040211 Name: ARCHERFIELD AIRPORT Lat: -27.57 Lon: 153.01 Height: 12.5 m
Data from the previous 72 hours. | See also: Recent months at Archerfield
Date/Time
EST
Temp
°C
App
Temp
°C
Dew
Point
Rel
Hum
%
Delta-T
°C
Wind Press
QNH
hPa
Press
MSL
hPa
Rain
since 9 am
mm
Dir
 
Spd
km/h
Gust
km/h
Spd
kts
Gust
kts
30/05:30pm 26.2 23.7 18.1 61 5.1 N 28 33 15 18 1006.1 1006.0 0.0
30/05:00pm 27.0 25.2 18.8 60 5.3 NNE 26 35 14 19 1005.7 1005.6 0.0
30/04:30pm 27.4 26.0 18.7 59 5.6 NNE 24 32 13 17 1005.7 1005.6 0.0
30/04:00pm 27.6 26.4 18.3 57 5.9 NNE 22 32 12 17 1005.9 1005.8 0.0
30/03:30pm 28.0 27.1 19.0 58 5.8 NNE 22 28 12 15 1005.9 1005.8 0.0
30/03:00pm 27.9 26.9 18.9 58 5.8 N 22 32 12 17 1006.2 1006.1 0.0
30/02:30pm 27.6 27.0 18.9 59 5.6 NNE 20 30 11 16 1006.4 1006.3 0.0
30/02:00pm 28.3 26.9 18.7 56 6.2 NNE 24 32 13 17 1006.6 1006.5 0.0
30/01:30pm 28.6 28.1 19.0 56 6.2 N 20 26 11 14 1007.0 1006.9 0.0
30/01:00pm 28.7 29.8 18.8 55 6.4 NNW 11 17 6 9 1007.5 1007.4 0.0
30/12:30pm 28.7 28.9 17.6 51 7.0 NW 13 20 7 11 1008.0 1007.9 0.0
30/12:00pm 28.4 29.5 17.9 53 6.7 NW 9 17 5 9 1008.5 1008.4 0.0
30/11:30am 27.7 28.7 16.9 51 6.7 NW 7 13 4 7 1008.8 1008.7 0.0
30/11:00am 27.4 27.8 18.1 57 5.9 N 13 22 7 12 1009.2 1009.1 0.0
30/10:30am 26.6 28.0 17.4 57 5.8 NNW 6 19 3 10 1009.5 1009.4 0.0
30/10:00am 26.2 27.6 17.3 58 5.6 NNE 6 13 3 7 1009.7 1009.6 0.0
30/09:30am 25.6 26.8 17.3 60 5.2 N 7 11 4 6 1009.8 1009.7 0.0
30/09:00am 25.7 26.9 17.4 60 5.2 ESE 7 15 4 8 1009.9 1009.8 1.0
30/08:30am 24.2 25.5 17.0 64 4.4 SSE 6 9 3 5 1010.0 1009.9 1.0
30/08:00am 23.9 26.4 18.1 70 3.6 SSW 2 7 1 4 1010.0 1009.9 1.0
30/07:30am 22.6 24.0 17.3 72 3.3 SW 6 9 3 5 1010.0 1009.9 1.0
30/07:00am 21.7 22.9 17.3 76 2.7 WSW 7 9 4 5 1009.9 1009.8 1.0
30/06:30am 20.9 23.6 17.7 82 2.0 CALM 0 4 0 2 1009.7 1009.6 1.0
30/06:00am 19.9 22.5 17.5 86 1.5 CALM 0 4 0 2 1009.4 1009.3 1.0
30/05:30am 19.4 21.9 17.2 87 1.3 CALM 0 6 0 3 1009.1 1009.0 1.0
30/05:00am 19.7 22.4 17.7 88 1.2 CALM 0 6 0 3 1008.9 1008.8 1.0
30/04:30am 19.7 20.7 17.8 89 1.2 SSW 9 11 5 6 1008.9 1008.8 1.0
30/04:00am 19.7 21.5 18.2 91 0.9 SSW 6 7 3 4 1009.0 1008.9 1.0
30/03:30am 19.3 20.2 17.6 90 1.0 SSW 9 11 5 6 1008.9 1008.8 1.0
30/03:00am 19.4 20.9 17.5 89 1.2 SSW 6 6 3 3 1009.0 1008.9 1.0
30/02:30am 19.5 20.8 17.5 88 1.2 SSW 7 9 4 5 1009.0 1008.9 1.0
30/02:00am 19.8 20.7 17.6 87 1.4 SSW 9 11 5 6 1009.3 1009.2 1.0
30/01:30am 20.2 20.8 17.8 86 1.5 S 11 13 6 7 1009.4 1009.3 1.0
30/01:00am 20.6 21.9 18.4 87 1.4 SSW 9 13 5 7 1009.5 1009.4 1.0
30/12:30am 21.0 24.0 18.4 85 1.6 CALM 0 0 0 0 1009.5 1009.4 1.0
30/12:00am 21.3 23.6 18.5 84 1.8 SE 4 7 2 4 1009.7 1009.6 1.0
 
Date/Time
EST
Temp
°C
App
Temp
°C
Dew
Point
Rel
Hum
%
Delta-T
°C
Wind Press
QNH
hPa
Press
MSL
hPa
Rain
since 9 am
mm
Dir
 
Spd
km/h
Gust
km/h
Spd
kts
Gust
kts
29/11:30pm 21.3 22.5 18.3 83 1.9 S 9 11 5 6 1010.0 1009.9 1.0
29/11:00pm 21.8 21.7 17.8 78 2.5 S 15 20 8 11 1010.0 1009.9 1.0
29/10:30pm 23.7 24.1 17.2 67 4.0 SSE 11 17 6 9 1010.1 1010.0 1.0
29/10:00pm 23.9 23.9 17.2 66 4.2 ESE 13 17 7 9 1010.0 1009.9 1.0
29/09:30pm 23.8 23.6 16.8 65 4.3 E 13 20 7 11 1009.9 1009.8 1.0
29/09:00pm 23.6 23.2 17.1 67 4.0 E 15 19 8 10 1009.6 1009.5 1.0
29/08:30pm 23.8 24.6 17.3 67 4.0 E 9 13 5 7 1009.6 1009.5 1.0
29/08:00pm 23.8 23.8 17.3 67 4.0 E 13 20 7 11 1009.3 1009.2 1.0
29/07:30pm 23.6 23.8 17.6 69 3.7 E 13 19 7 10 1009.0 1008.9 1.0
29/07:00pm 24.0 23.0 17.5 67 4.0 ENE 19 22 10 12 1008.7 1008.6 1.0
29/06:30pm 24.3 23.9 18.0 68 4.0 ENE 17 26 9 14 1008.4 1008.3 1.0
29/06:00pm 25.2 24.3 17.7 63 4.7 ENE 19 26 10 14 1007.9 1007.8 1.0
29/05:30pm 25.8 25.3 17.7 61 5.1 ENE 17 24 9 13 1007.4 1007.3 1.0
29/05:00pm 26.2 25.3 18.3 61 5.0 ENE 20 26 11 14 1006.9 1006.8 1.0
29/04:30pm 26.0 24.8 17.4 59 5.4 ESE 20 26 11 14 1006.6 1006.5 1.0
29/04:00pm 27.1 26.9 19.4 62 5.0 ENE 19 24 10 13 1006.4 1006.3 1.0
29/03:30pm 26.0 25.7 19.2 66 4.4 ENE 19 22 10 12 1006.6 1006.5 1.0
29/03:27pm 26.1 26.0 19.5 67 4.3 ENE 19 22 10 12 1006.7 1006.6 1.0
29/03:07pm 25.0 24.2 18.0 65 4.4 E 19 28 10 15 1006.7 1006.6 0.2
29/03:00pm 26.7 25.8 16.9 55 6.1 ENE 17 24 9 13 1006.6 1006.5 0.0
29/02:30pm 28.2 28.3 17.4 52 6.8 NE 13 19 7 10 1006.6 1006.5 0.0
29/02:00pm 27.6 28.1 16.6 51 6.8 E 9 20 5 11 1006.9 1006.8 0.0
29/01:30pm 28.0 29.1 16.6 50 7.1 SE 6 11 3 6 1007.0 1006.9 0.0
29/01:00pm 28.7 29.5 19.1 56 6.2 E 13 19 7 10 1007.2 1007.1 0.0
29/12:30pm 27.5 28.1 15.8 48 7.2 SSE 7 15 4 8 1007.6 1007.5 0.0
29/12:00pm 28.1 28.4 16.1 48 7.4 SSW 9 15 5 8 1007.9 1007.8 0.0
29/11:30am 27.4 27.6 16.7 52 6.7 S 11 15 6 8 1008.3 1008.2 0.0
29/11:00am 27.0 26.5 16.0 51 6.8 SE 13 20 7 11 1008.7 1008.6 0.0
29/10:30am 26.4 25.3 16.3 53 6.2 SE 17 28 9 15 1008.9 1008.8 0.0
29/10:00am 25.9 24.4 16.2 55 6.0 SSE 19 28 10 15 1009.0 1008.9 0.0
29/09:30am 25.2 24.1 15.2 54 6.0 SSW 15 22 8 12 1009.1 1009.0 0.0
29/09:00am 24.5 24.0 14.9 55 5.7 S 11 17 6 9 1009.1 1009.0 0.2
29/08:30am 23.5 22.1 14.5 57 5.3 S 15 20 8 11 1009.0 1008.9 0.2
29/08:00am 22.6 20.6 13.9 58 5.1 S 17 24 9 13 1008.9 1008.8 0.2
29/07:30am 22.2 20.3 14.3 61 4.6 S 17 22 9 12 1008.8 1008.7 0.2
29/07:00am 21.1 19.2 13.0 60 4.6 S 15 22 8 12 1008.6 1008.5 0.2
29/06:30am 20.7 18.4 12.9 61 4.4 S 17 20 9 11 1008.4 1008.3 0.2
29/06:00am 20.4 19.1 13.6 65 3.9 S 13 17 7 9 1008.2 1008.1 0.2
29/05:30am 20.5 18.4 13.7 65 3.9 SSW 17 22 9 12 1007.8 1007.7 0.2
29/05:00am 20.6 19.0 13.8 65 3.9 SSW 15 20 8 11 1007.6 1007.5 0.2
29/04:30am 20.7 19.6 14.4 67 3.7 S 13 17 7 9 1007.4 1007.3 0.2
29/04:00am 20.8 19.8 14.5 67 3.7 S 13 22 7 12 1007.1 1007.0 0.2
29/03:30am 20.8 19.9 14.9 69 3.5 S 13 19 7 10 1007.1 1007.0 0.2
29/03:00am 20.9 19.7 15.0 69 3.5 SSW 15 20 8 11 1007.2 1007.1 0.2
29/02:30am 20.7 19.7 15.5 72 3.1 S 15 20 8 11 1006.8 1006.7 0.2
29/02:00am 21.0 19.6 15.5 71 3.3 S 17 22 9 12 1007.2 1007.1 0.2
29/01:30am 21.2 20.2 15.7 71 3.3 SSW 15 20 8 11 1007.2 1007.1 0.2
29/01:00am 21.3 20.8 15.8 71 3.3 SSW 13 19 7 10 1007.7 1007.6 0.2
29/12:30am 21.2 20.7 16.0 72 3.1 SSW 13 17 7 9 1007.8 1007.7 0.2
29/12:00am 21.0 21.1 16.6 76 2.7 SSW 11 15 6 8 1007.8 1007.7 0.2
 
Date/Time
EST
Temp
°C
App
Temp
°C
Dew
Point
Rel
Hum
%
Delta-T
°C
Wind Press
QNH
hPa
Press
MSL
hPa
Rain
since 9 am
mm
Dir
 
Spd
km/h
Gust
km/h
Spd
kts
Gust
kts
28/11:30pm 21.1 21.7 16.7 76 2.7 SSW 9 15 5 8 1008.3 1008.2 0.2
28/11:00pm 20.7 21.8 17.1 80 2.2 SW 7 9 4 5 1008.4 1008.3 0.2
28/10:30pm 20.6 21.7 16.6 78 2.4 SSW 6 7 3 4 1008.3 1008.2 0.2
28/10:00pm 20.8 21.3 16.6 77 2.5 SSW 9 11 5 6 1008.3 1008.2 0.2
28/09:30pm 20.8 21.2 16.4 76 2.7 SSW 9 13 5 7 1008.2 1008.1 0.2
28/09:00pm 21.1 21.7 16.7 76 2.7 SSW 9 13 5 7 1008.3 1008.2 0.2
28/08:30pm 21.2 21.6 16.4 74 2.9 SSW 9 13 5 7 1008.1 1008.0 0.2
28/08:00pm 21.6 21.2 16.3 72 3.2 SSW 13 17 7 9 1007.9 1007.8 0.2
28/07:30pm 22.0 21.1 16.9 73 3.1 SSW 17 20 9 11 1007.7 1007.6 0.2
28/07:00pm 22.9 23.0 17.4 71 3.4 S 13 17 7 9 1007.6 1007.5 0.2
28/06:30pm 23.8 23.1 17.3 67 4.0 S 17 26 9 14 1007.1 1007.0 0.2
28/06:00pm 24.3 24.4 17.5 66 4.2 SSE 13 20 7 11 1006.8 1006.7 0.2
28/05:30pm 24.7 24.2 17.7 65 4.4 SSE 17 22 9 12 1006.4 1006.3 0.2
28/05:00pm 24.8 23.6 17.0 62 4.8 SSE 19 24 10 13 1006.1 1006.0 0.2
28/04:30pm 25.2 23.0 16.9 60 5.1 SSE 24 33 13 18 1005.9 1005.8 0.2
28/04:00pm 25.5 23.4 17.2 60 5.2 SSE 24 33 13 18 1005.8 1005.7 0.2
28/03:30pm 25.2 24.1 18.6 67 4.2 SE 22 33 12 18 1005.7 1005.6 0.2
28/03:00pm 25.6 24.7 19.0 67 4.2 SSE 22 30 12 16 1005.8 1005.7 0.2
28/02:30pm 25.7 24.3 17.9 62 4.9 SSE 22 32 12 17 1005.7 1005.6 0.2
28/02:00pm 25.9 25.0 18.1 62 4.9 S 20 26 11 14 1005.7 1005.6 0.2
28/01:30pm 27.0 26.3 18.3 59 5.5 S 19 26 10 14 1005.9 1005.8 0.2
28/01:00pm 26.2 26.1 18.8 63 4.7 SSW 17 24 9 13 1006.1 1006.0 0.2
28/12:30pm 25.8 26.1 18.7 65 4.5 SSW 15 20 8 11 1006.2 1006.1 0.2
28/12:00pm 25.3 25.5 18.5 66 4.3 SSW 15 19 8 10 1006.4 1006.3 0.2
28/11:30am 24.1 25.4 18.5 71 3.5 SSW 9 15 5 8 1006.6 1006.5 0.2
28/11:00am 23.6 24.4 19.1 76 2.9 S 13 17 7 9 1006.9 1006.8 0.2
28/10:30am 22.6 22.8 18.6 78 2.5 SSW 15 20 8 11 1007.0 1006.9 0.2
28/10:00am 21.9 21.6 18.3 80 2.3 S 17 22 9 12 1006.8 1006.7 0.2
28/09:30am 22.0 23.2 19.9 88 1.3 SW 13 20 7 11 1007.1 1007.0 0.2
28/09:00am 20.5 19.9 18.4 88 1.3 SSW 19 22 10 12 1006.9 1006.8 5.6
28/08:30am 20.4 20.3 18.7 90 1.1 SSW 17 22 9 12 1007.0 1006.9 5.6
28/08:00am 20.0 19.7 18.3 90 1.1 SSW 17 24 9 13 1006.5 1006.4 5.6
28/07:30am 19.4 20.5 17.9 91 0.9 SSW 9 13 5 7 1006.1 1006.0 5.4
28/07:00am 19.3 19.8 17.4 89 1.2 SSW 11 15 6 8 1006.2 1006.1 5.2
28/06:30am 19.3 19.8 17.4 89 1.2 SSW 11 13 6 7 1006.2 1006.1 5.0
28/06:00am 19.5 20.4 17.5 88 1.2 SW 9 13 5 7 1006.0 1005.9 4.8
28/05:30am 19.6 20.3 17.0 85 1.6 SSW 9 13 5 7 1005.8 1005.7 4.6
28/05:00am 19.6 20.0 17.2 86 1.5 SSW 11 13 6 7 1005.7 1005.6 4.6
28/04:30am 19.5 20.3 17.3 87 1.3 SSW 9 13 5 7 1005.6 1005.5 4.6
28/04:00am 19.6 20.1 17.4 87 1.3 S 11 15 6 8 1005.3 1005.2 4.6
28/03:30am 19.8 20.4 17.6 87 1.3 SSW 11 15 6 8 1005.5 1005.4 4.6
28/03:00am 20.0 21.1 18.1 89 1.2 SSW 9 13 5 7 1005.5 1005.4 4.6
28/02:30am 20.1 21.0 18.4 90 1.1 SSW 11 13 6 7 1005.7 1005.6 4.6
28/02:00am 20.4 21.9 18.9 91 0.9 SW 9 13 5 7 1006.2 1006.1 4.6
28/01:30am 20.6 22.2 19.1 91 0.9 SSE 9 15 5 8 1006.2 1006.1 4.6
28/01:00am 20.9 21.8 19.2 90 1.1 S 13 19 7 10 1006.9 1006.8 4.0
28/12:30am 21.7 23.3 20.0 90 1.1 S 11 13 6 7 1007.4 1007.3 3.2
28/12:00am 22.2 24.2 19.9 87 1.5 SSE 9 15 5 8 1007.4 1007.3 2.4
 
Date/Time
EST
Temp
°C
App
Temp
°C
Dew
Point
Rel
Hum
%
Delta-T
°C
Wind Press
QNH
hPa
Press
MSL
hPa
Rain
since 9 am
mm
Dir
 
Spd
km/h
Gust
km/h
Spd
kts
Gust
kts
27/11:30pm 22.7 24.8 20.2 86 1.6 SSE 9 13 5 7 1007.6 1007.5 1.8
27/11:00pm 23.0 25.4 20.1 84 1.9 ESE 7 9 4 5 1007.4 1007.3 1.4
27/10:30pm 23.1 25.2 20.1 83 1.9 ENE 9 13 5 7 1007.3 1007.2 1.4
27/10:00pm 23.4 25.5 20.1 82 2.1 ENE 9 13 5 7 1007.4 1007.3 1.2
27/09:30pm 23.9 25.7 20.4 81 2.3 E 11 15 6 8 1007.6 1007.5 0.6
27/09:00pm 24.5 25.7 20.0 76 2.9 E 13 22 7 12 1007.6 1007.5 0.2
27/08:30pm 24.8 25.5 19.6 73 3.3 E 15 24 8 13 1007.1 1007.0 0.0
27/08:00pm 25.1 26.1 19.5 71 3.6 E 13 20 7 11 1006.7 1006.6 0.0
27/07:30pm 25.2 25.5 19.6 71 3.6 E 17 24 9 13 1006.3 1006.2 0.0
27/07:00pm 25.5 25.2 19.6 70 3.8 E 20 26 11 14 1006.3 1006.2 0.0
27/06:30pm 25.5 24.8 19.6 70 3.8 E 22 33 12 18 1006.0 1005.9 0.0
27/06:00pm 26.0 24.9 19.4 67 4.3 E 24 35 13 19 1005.5 1005.4 0.0

Other Formats:

Comma delimited format used in spreadsheet applications
http://www.bom.gov.au/fwo/IDQ60801/IDQ60801.94575.axf

JavaScript Object Notation format (JSON) in row-major order
http://www.bom.gov.au/fwo/IDQ60801/IDQ60801.94575.json